sensor_id;sensor_type;location;lat;lon;timestamp;P1;durP1;ratioP1;P2;durP2;ratioP2
39698;SDS011;25372;50.582;12.250;2022-11-15T00:04:02;12.80;;;6.13;;
39698;SDS011;25372;50.582;12.250;2022-11-15T00:14:43;19.92;;;7.22;;
39698;SDS011;25372;50.582;12.250;2022-11-15T00:25:23;20.58;;;8.90;;
39698;SDS011;25372;50.582;12.250;2022-11-15T00:36:05;20.85;;;8.68;;
39698;SDS011;25372;50.582;12.250;2022-11-15T00:46:47;12.55;;;6.55;;
39698;SDS011;25372;50.582;12.250;2022-11-15T00:57:28;11.80;;;5.85;;
39698;SDS011;25372;50.582;12.250;2022-11-15T01:08:11;13.68;;;7.72;;
39698;SDS011;25372;50.582;12.250;2022-11-15T01:18:53;12.40;;;5.60;;
39698;SDS011;25372;50.582;12.250;2022-11-15T01:29:33;7.20;;;4.18;;
39698;SDS011;25372;50.582;12.250;2022-11-15T01:40:14;14.20;;;6.72;;
39698;SDS011;25372;50.582;12.250;2022-11-15T01:50:54;14.85;;;5.80;;
39698;SDS011;25372;50.582;12.250;2022-11-15T02:01:35;13.82;;;6.25;;
39698;SDS011;25372;50.582;12.250;2022-11-15T02:12:15;11.40;;;5.85;;
39698;SDS011;25372;50.582;12.250;2022-11-15T02:23:04;21.50;;;8.13;;
39698;SDS011;25372;50.582;12.250;2022-11-15T02:34:06;20.13;;;7.90;;
39698;SDS011;25372;50.582;12.250;2022-11-15T02:44:55;14.85;;;6.75;;
39698;SDS011;25372;50.582;12.250;2022-11-15T02:55:41;15.45;;;6.07;;
39698;SDS011;25372;50.582;12.250;2022-11-15T03:06:26;20.40;;;7.97;;
39698;SDS011;25372;50.582;12.250;2022-11-15T03:17:14;20.98;;;9.43;;
39698;SDS011;25372;50.582;12.250;2022-11-15T03:27:58;11.50;;;6.63;;
39698;SDS011;25372;50.582;12.250;2022-11-15T03:38:44;9.17;;;5.10;;
39698;SDS011;25372;50.582;12.250;2022-11-15T03:49:25;11.15;;;6.90;;
39698;SDS011;25372;50.582;12.250;2022-11-15T04:00:10;22.45;;;7.07;;
39698;SDS011;25372;50.582;12.250;2022-11-15T04:10:50;18.15;;;7.15;;
39698;SDS011;25372;50.582;12.250;2022-11-15T04:21:32;11.15;;;6.35;;
39698;SDS011;25372;50.582;12.250;2022-11-15T04:32:29;13.55;;;5.70;;
39698;SDS011;25372;50.582;12.250;2022-11-15T04:43:10;13.52;;;5.85;;
39698;SDS011;25372;50.582;12.250;2022-11-15T04:53:50;10.35;;;5.00;;
39698;SDS011;25372;50.582;12.250;2022-11-15T05:04:31;11.98;;;5.70;;
39698;SDS011;25372;50.582;12.250;2022-11-15T05:15:11;7.25;;;3.33;;
39698;SDS011;25372;50.582;12.250;2022-11-15T05:25:52;11.57;;;4.55;;
39698;SDS011;25372;50.582;12.250;2022-11-15T05:36:33;6.55;;;4.15;;
39698;SDS011;25372;50.582;12.250;2022-11-15T05:47:17;8.70;;;4.95;;
39698;SDS011;25372;50.582;12.250;2022-11-15T05:58:00;9.23;;;4.68;;
39698;SDS011;25372;50.582;12.250;2022-11-15T06:08:41;9.40;;;5.97;;
39698;SDS011;25372;50.582;12.250;2022-11-15T06:19:21;7.38;;;5.22;;
39698;SDS011;25372;50.582;12.250;2022-11-15T06:30:02;14.55;;;6.53;;
39698;SDS011;25372;50.582;12.250;2022-11-15T06:40:43;9.57;;;5.60;;
39698;SDS011;25372;50.582;12.250;2022-11-15T06:51:24;14.73;;;6.80;;
39698;SDS011;25372;50.582;12.250;2022-11-15T07:02:03;15.55;;;5.85;;
39698;SDS011;25372;50.582;12.250;2022-11-15T07:12:47;23.08;;;6.18;;
39698;SDS011;25372;50.582;12.250;2022-11-15T07:23:27;17.95;;;7.78;;
39698;SDS011;25372;50.582;12.250;2022-11-15T07:34:08;16.70;;;7.40;;
39698;SDS011;25372;50.582;12.250;2022-11-15T07:44:48;17.70;;;7.35;;
39698;SDS011;25372;50.582;12.250;2022-11-15T07:55:29;12.00;;;5.57;;
39698;SDS011;25372;50.582;12.250;2022-11-15T08:06:08;12.90;;;7.63;;
39698;SDS011;25372;50.582;12.250;2022-11-15T08:16:49;12.38;;;6.25;;
39698;SDS011;25372;50.582;12.250;2022-11-15T08:27:30;13.57;;;6.65;;
39698;SDS011;25372;50.582;12.250;2022-11-15T08:38:11;11.82;;;5.50;;
39698;SDS011;25372;50.582;12.250;2022-11-15T08:48:51;18.02;;;7.00;;
39698;SDS011;25372;50.582;12.250;2022-11-15T08:59:31;14.88;;;6.60;;
39698;SDS011;25372;50.582;12.250;2022-11-15T09:10:11;16.17;;;7.18;;
39698;SDS011;25372;50.582;12.250;2022-11-15T09:20:52;14.25;;;6.20;;
39698;SDS011;25372;50.582;12.250;2022-11-15T09:31:35;9.45;;;5.97;;
39698;SDS011;25372;50.582;12.250;2022-11-15T09:42:25;12.07;;;6.38;;
39698;SDS011;25372;50.582;12.250;2022-11-15T09:53:22;11.02;;;5.85;;
39698;SDS011;25372;50.582;12.250;2022-11-15T10:03:48;14.55;;;6.38;;
39698;SDS011;25372;50.582;12.250;2022-11-15T10:14:10;13.43;;;6.13;;
39698;SDS011;25372;50.582;12.250;2022-11-15T10:35:21;22.02;;;8.02;;
39698;SDS011;25372;50.582;12.250;2022-11-15T10:45:45;8.30;;;5.57;;
39698;SDS011;25372;50.582;12.250;2022-11-15T10:56:08;14.50;;;5.90;;
39698;SDS011;25372;50.582;12.250;2022-11-15T11:06:46;16.98;;;5.90;;
39698;SDS011;25372;50.582;12.250;2022-11-15T11:17:10;14.68;;;5.45;;
39698;SDS011;25372;50.582;12.250;2022-11-15T11:27:40;8.82;;;5.95;;
39698;SDS011;25372;50.582;12.250;2022-11-15T11:38:09;12.23;;;5.28;;
39698;SDS011;25372;50.582;12.250;2022-11-15T11:59:05;14.73;;;6.47;;
39698;SDS011;25372;50.582;12.250;2022-11-15T12:09:38;19.05;;;5.82;;
39698;SDS011;25372;50.582;12.250;2022-11-15T12:20:06;10.95;;;5.78;;
39698;SDS011;25372;50.582;12.250;2022-11-15T12:30:41;16.85;;;5.70;;
39698;SDS011;25372;50.582;12.250;2022-11-15T12:41:13;13.80;;;5.90;;
39698;SDS011;25372;50.582;12.250;2022-11-15T13:02:27;12.52;;;6.97;;
39698;SDS011;25372;50.582;12.250;2022-11-15T13:12:58;14.35;;;5.32;;
39698;SDS011;25372;50.582;12.250;2022-11-15T13:23:20;16.40;;;5.70;;
39698;SDS011;25372;50.582;12.250;2022-11-15T13:33:43;19.33;;;6.97;;
39698;SDS011;25372;50.582;12.250;2022-11-15T13:44:05;16.02;;;7.07;;
39698;SDS011;25372;50.582;12.250;2022-11-15T13:54:42;14.53;;;5.93;;
39698;SDS011;25372;50.582;12.250;2022-11-15T14:05:13;14.23;;;5.57;;
39698;SDS011;25372;50.582;12.250;2022-11-15T14:15:38;10.82;;;5.10;;
39698;SDS011;25372;50.582;12.250;2022-11-15T14:25:59;11.85;;;3.65;;
39698;SDS011;25372;50.582;12.250;2022-11-15T14:36:22;10.07;;;5.88;;
39698;SDS011;25372;50.582;12.250;2022-11-15T14:46:43;13.07;;;5.40;;
39698;SDS011;25372;50.582;12.250;2022-11-15T14:57:06;9.20;;;4.90;;
39698;SDS011;25372;50.582;12.250;2022-11-15T15:07:27;8.60;;;4.18;;
39698;SDS011;25372;50.582;12.250;2022-11-15T15:17:49;6.55;;;4.43;;
39698;SDS011;25372;50.582;12.250;2022-11-15T15:28:10;12.00;;;4.78;;
39698;SDS011;25372;50.582;12.250;2022-11-15T15:38:32;12.80;;;5.60;;
39698;SDS011;25372;50.582;12.250;2022-11-15T15:48:52;12.52;;;6.07;;
39698;SDS011;25372;50.582;12.250;2022-11-15T15:59:15;10.40;;;5.10;;
39698;SDS011;25372;50.582;12.250;2022-11-15T16:09:36;13.95;;;6.05;;
39698;SDS011;25372;50.582;12.250;2022-11-15T16:20:19;12.40;;;4.77;;
39698;SDS011;25372;50.582;12.250;2022-11-15T16:30:43;11.05;;;4.85;;
39698;SDS011;25372;50.582;12.250;2022-11-15T16:41:06;14.88;;;4.80;;
39698;SDS011;25372;50.582;12.250;2022-11-15T16:51:27;10.15;;;5.10;;
39698;SDS011;25372;50.582;12.250;2022-11-15T17:01:49;12.93;;;6.35;;
39698;SDS011;25372;50.582;12.250;2022-11-15T17:12:10;9.25;;;5.05;;
39698;SDS011;25372;50.582;12.250;2022-11-15T17:22:34;9.63;;;5.22;;
39698;SDS011;25372;50.582;12.250;2022-11-15T17:32:55;7.82;;;4.18;;
39698;SDS011;25372;50.582;12.250;2022-11-15T17:43:17;12.25;;;4.88;;
39698;SDS011;25372;50.582;12.250;2022-11-15T17:53:39;9.07;;;3.92;;
39698;SDS011;25372;50.582;12.250;2022-11-15T18:04:03;6.65;;;4.90;;
39698;SDS011;25372;50.582;12.250;2022-11-15T18:14:27;8.93;;;3.90;;
39698;SDS011;25372;50.582;12.250;2022-11-15T18:24:50;5.63;;;3.90;;
39698;SDS011;25372;50.582;12.250;2022-11-15T18:35:10;8.23;;;5.60;;
39698;SDS011;25372;50.582;12.250;2022-11-15T18:45:33;7.05;;;4.00;;
39698;SDS011;25372;50.582;12.250;2022-11-15T18:55:58;9.63;;;5.68;;
39698;SDS011;25372;50.582;12.250;2022-11-15T19:06:21;10.45;;;5.63;;
39698;SDS011;25372;50.582;12.250;2022-11-15T19:16:44;6.68;;;4.80;;
39698;SDS011;25372;50.582;12.250;2022-11-15T19:27:09;7.68;;;3.05;;
39698;SDS011;25372;50.582;12.250;2022-11-15T19:37:30;8.45;;;5.07;;
39698;SDS011;25372;50.582;12.250;2022-11-15T19:47:58;12.52;;;6.60;;
39698;SDS011;25372;50.582;12.250;2022-11-15T19:58:18;5.10;;;4.38;;
39698;SDS011;25372;50.582;12.250;2022-11-15T20:08:41;11.23;;;4.13;;
39698;SDS011;25372;50.582;12.250;2022-11-15T20:19:03;7.43;;;3.75;;
39698;SDS011;25372;50.582;12.250;2022-11-15T20:29:27;9.82;;;3.97;;
39698;SDS011;25372;50.582;12.250;2022-11-15T20:39:48;11.77;;;4.75;;
39698;SDS011;25372;50.582;12.250;2022-11-15T20:50:10;13.95;;;4.80;;
39698;SDS011;25372;50.582;12.250;2022-11-15T21:00:31;6.50;;;3.97;;
39698;SDS011;25372;50.582;12.250;2022-11-15T21:10:53;3.53;;;3.10;;
39698;SDS011;25372;50.582;12.250;2022-11-15T21:21:31;5.30;;;3.45;;
39698;SDS011;25372;50.582;12.250;2022-11-15T21:31:54;9.77;;;4.43;;
39698;SDS011;25372;50.582;12.250;2022-11-15T21:42:15;8.18;;;4.07;;
39698;SDS011;25372;50.582;12.250;2022-11-15T21:52:37;3.90;;;2.38;;
39698;SDS011;25372;50.582;12.250;2022-11-15T22:02:58;7.15;;;3.00;;
39698;SDS011;25372;50.582;12.250;2022-11-15T22:13:21;4.30;;;3.72;;
39698;SDS011;25372;50.582;12.250;2022-11-15T22:23:42;6.70;;;4.72;;
39698;SDS011;25372;50.582;12.250;2022-11-15T22:34:05;5.93;;;3.92;;
39698;SDS011;25372;50.582;12.250;2022-11-15T22:44:27;5.63;;;4.07;;
39698;SDS011;25372;50.582;12.250;2022-11-15T22:54:49;5.65;;;2.83;;
39698;SDS011;25372;50.582;12.250;2022-11-15T23:05:10;8.10;;;3.53;;
39698;SDS011;25372;50.582;12.250;2022-11-15T23:15:33;3.63;;;2.22;;
39698;SDS011;25372;50.582;12.250;2022-11-15T23:26:07;2.47;;;1.55;;
39698;SDS011;25372;50.582;12.250;2022-11-15T23:36:31;2.03;;;1.83;;
39698;SDS011;25372;50.582;12.250;2022-11-15T23:46:52;5.63;;;2.67;;
39698;SDS011;25372;50.582;12.250;2022-11-15T23:57:14;3.63;;;2.63;;
